CheckWX is a tool to help pilots better visualize weather data.  It is not intended as a substitute for an official pre-flight weather briefing.

09:49:39 UTC

EGPK METAR
Glasgow Prestwick Airport
Glasgow, United Kingdom
Current

30 mins ago

EGPK 310920Z 10006KT CAVOK 20/07 Q1026
Observed
May-31 @ 09:20 UTC
Wind
  • 100° at 6 KTS
Visibility
10,000+ meters
Flight Rules
VFR
Cloud Levels
  • Clear skies
Temperature
20°C / 68°F
Dewpoint
C / 45°F
Humidity
43%
Altimeter
30.3" Hg
Pressure
1025.92 hPa
Previous

60 mins ago

EGPK 310850Z 08005KT 050V110 CAVOK 19/07 Q1026
Observed
May-31 @ 08:50 UTC
Wind
  • 080° at 5 KTS
Visibility
10,000+ meters
Flight Rules
VFR
Cloud Levels
  • Clear skies
Temperature
19°C / 66°F
Dewpoint
C / 45°F
Humidity
46%
Altimeter
30.3" Hg
Pressure
1025.92 hPa
Previous

1 hour ago

EGPK 310820Z 09004KT 040V120 CAVOK 18/08 Q1026
Observed
May-31 @ 08:20 UTC
Wind
  • 090° at 4 KTS
Visibility
10,000+ meters
Flight Rules
VFR
Cloud Levels
  • Clear skies
Temperature
18°C / 64°F
Dewpoint
C / 46°F
Humidity
52%
Altimeter
30.3" Hg
Pressure
1025.92 hPa